Time;durP1;ratioP1;P1;durP2;ratioP2;P2;SDS_P1;SDS_P2;PMS_P1;PMS_P2;Temp;Humidity;BMP_temperature;BMP_pressure;BME280_temperature;BME280_humidity;BME280_pressure;Samples;Min_cycle;Max_cycle;Signal;HPM_P1;HPM_P2
2022/06/28 00:01:39;;;;;;;;;;;17.60;99.90;;;;;;4948422;29;19945;-73
2022/06/28 00:04:07;;;;;;;;;;;17.50;99.90;;;;;;4941917;28;19922;-74
2022/06/28 00:06:39;;;;;;;;;;;17.40;99.90;;;;;;4945719;28;19923;-73
2022/06/28 00:09:11;;;;;;;;;;;17.50;99.90;;;;;;4949454;28;19942;-74
2022/06/28 00:11:43;;;;;;;;;;;17.50;99.90;;;;;;4959248;28;19923;-74
2022/06/28 00:17:00;;;;;;;;;;;17.50;99.90;;;;;;4973336;28;19926;-73
2022/06/28 00:19:32;;;;;;;;;;;17.50;99.90;;;;;;4950123;28;19957;-73
2022/06/28 00:21:58;;;;;;;;;;;17.40;99.90;;;;;;4952657;29;20044;-73
2022/06/28 00:24:30;;;;;;;;;;;17.40;99.90;;;;;;4957123;28;19926;-73
2022/06/28 00:27:02;;;;;;;;;;;17.30;99.90;;;;;;4965410;28;19929;-73
2022/06/28 00:29:28;;;;;;;;;;;17.30;99.90;;;;;;4964117;28;19922;-74
2022/06/28 00:32:00;;;;;;;;;;;17.30;99.90;;;;;;4961143;28;19922;-73
2022/06/28 00:34:32;;;;;;;;;;;17.20;99.90;;;;;;4969382;28;19928;-73
2022/06/28 00:37:03;;;;;;;;;;;17.20;99.90;;;;;;4952014;29;19976;-73
2022/06/28 00:39:30;;;;;;;;;;;17.10;99.90;;;;;;4959737;28;19926;-73
2022/06/28 00:42:02;;;;;;;;;;;17.10;99.90;;;;;;4960561;28;19927;-74
2022/06/28 00:44:33;;;;;;;;;;;17.00;99.90;;;;;;4974342;28;20402;-74
2022/06/28 00:47:07;;;;;;;;;;;16.90;99.90;;;;;;4970761;28;19965;-73
2022/06/28 00:49:33;;;;;;;;;;;16.90;99.90;;;;;;4984347;28;20408;-73
2022/06/28 00:52:06;;;;;;;;;;;17.00;99.90;;;;;;4956274;28;19922;-73
2022/06/28 00:54:38;;;;;;;;;;;17.00;99.90;;;;;;4975992;28;20311;-73
2022/06/28 00:57:05;;;;;;;;;;;17.00;99.90;;;;;;4972715;28;20017;-73
2022/06/28 00:59:37;;;;;;;;;;;17.00;99.90;;;;;;4971662;28;19929;-73
2022/06/28 01:02:04;;;;;;;;;;;17.00;99.90;;;;;;4944989;29;19977;-73
2022/06/28 01:04:36;;;;;;;;;;;17.00;99.90;;;;;;4947495;29;19928;-73
2022/06/28 01:07:08;;;;;;;;;;;17.10;99.90;;;;;;4978816;28;19965;-73
2022/06/28 01:09:39;;;;;;;;;;;17.00;99.90;;;;;;4958776;28;19944;-73
2022/06/28 01:12:11;;;;;;;;;;;17.10;99.90;;;;;;4975510;28;20298;-74
2022/06/28 01:14:43;;;;;;;;;;;17.10;99.90;;;;;;4961469;28;19959;-73
2022/06/28 01:17:31;;;;;;;;;;;17.20;99.90;;;;;;4959906;28;19938;-74
2022/06/28 01:20:27;;;;;;;;;;;17.20;99.90;;;;;;4969574;28;19926;-73
2022/06/28 01:23:10;;;;;;;;;;;17.20;99.90;;;;;;4951593;28;20016;-73
2022/06/28 01:25:44;;;;;;;;;;;17.20;99.90;;;;;;4945363;28;19926;-73
2022/06/28 01:28:21;;;;;;;;;;;17.30;99.90;;;;;;4966693;28;19922;-74
2022/06/28 01:31:00;;;;;;;;;;;17.30;99.90;;;;;;4973576;28;19949;-73
2022/06/28 01:33:33;;;;;;;;;;;17.30;99.90;;;;;;4973702;28;19930;-73
2022/06/28 01:36:08;;;;;;;;;;;17.30;99.90;;;;;;4964561;28;20469;-74
2022/06/28 01:38:35;;;;;;;;;;;17.30;99.90;;;;;;4977959;28;20008;-73
2022/06/28 01:41:08;;;;;;;;;;;17.30;99.90;;;;;;4962217;28;19968;-74
2022/06/28 01:43:40;;;;;;;;;;;17.40;99.90;;;;;;4970350;28;20013;-73
2022/06/28 01:46:12;;;;;;;;;;;17.40;99.90;;;;;;4961715;28;20013;-73
2022/06/28 01:48:54;;;;;;;;;;;17.40;99.90;;;;;;4961548;28;20290;-73
2022/06/28 01:51:26;;;;;;;;;;;17.40;99.90;;;;;;4959730;28;19926;-73
2022/06/28 01:53:58;;;;;;;;;;;17.40;99.90;;;;;;4979439;28;19923;-73
2022/06/28 01:56:32;;;;;;;;;;;17.30;99.90;;;;;;4958688;28;19927;-73
2022/06/28 01:59:21;;;;;;;;;;;17.30;99.90;;;;;;4966579;28;19926;-73
2022/06/28 02:02:01;;;;;;;;;;;17.40;99.90;;;;;;4956971;28;19923;-73
2022/06/28 02:05:05;;;;;;;;;;;17.40;99.90;;;;;;4931314;28;19926;-73
2022/06/28 02:07:33;;;;;;;;;;;17.40;99.90;;;;;;4956374;28;19929;-73
2022/06/28 02:10:05;;;;;;;;;;;17.50;99.90;;;;;;4958992;28;20473;-73
2022/06/28 02:12:37;;;;;;;;;;;17.50;99.90;;;;;;4950440;28;20504;-73
2022/06/28 02:15:09;;;;;;;;;;;17.60;99.90;;;;;;4967418;28;19922;-73
2022/06/28 02:17:36;;;;;;;;;;;17.60;99.90;;;;;;4961206;28;19934;-74
2022/06/28 02:20:08;;;;;;;;;;;17.60;99.90;;;;;;4975554;28;19930;-73
2022/06/28 02:22:42;;;;;;;;;;;17.50;99.90;;;;;;4958230;28;19977;-73
2022/06/28 02:25:13;;;;;;;;;;;17.50;99.90;;;;;;4949559;29;19927;-73
2022/06/28 02:27:47;;;;;;;;;;;17.50;99.90;;;;;;4965856;28;19923;-73
2022/06/28 02:30:21;;;;;;;;;;;17.50;99.90;;;;;;4975179;28;19949;-73
2022/06/28 02:32:48;;;;;;;;;;;17.50;99.90;;;;;;4970342;28;19962;-73
2022/06/28 02:40:56;;;;;;;;;;;17.60;99.90;;;;;;4949476;29;20017;-73
2022/06/28 02:43:23;;;;;;;;;;;17.60;99.90;;;;;;4932843;29;19927;-73
2022/06/28 02:45:51;;;;;;;;;;;17.60;99.90;;;;;;4933284;29;20029;-73
2022/06/28 02:48:22;;;;;;;;;;;17.50;99.90;;;;;;4934153;29;19923;-73
2022/06/28 02:50:54;;;;;;;;;;;17.50;99.90;;;;;;4965422;28;19923;-73
2022/06/28 02:53:25;;;;;;;;;;;17.50;99.90;;;;;;4967060;28;19944;-73
2022/06/28 02:55:57;;;;;;;;;;;17.50;99.90;;;;;;4965638;28;19934;-73
2022/06/28 02:58:29;;;;;;;;;;;17.50;99.90;;;;;;4957182;28;19929;-73
2022/06/28 03:01:01;;;;;;;;;;;17.50;99.90;;;;;;4955472;28;19978;-73
2022/06/28 03:03:32;;;;;;;;;;;17.50;99.90;;;;;;4956195;28;20022;-74
2022/06/28 03:06:04;;;;;;;;;;;17.50;99.90;;;;;;4975516;28;19930;-73
2022/06/28 03:08:31;;;;;;;;;;;17.60;99.90;;;;;;4974403;28;19937;-73
2022/06/28 03:11:03;;;;;;;;;;;17.60;99.90;;;;;;4960596;28;19977;-73
2022/06/28 03:13:35;;;;;;;;;;;17.60;99.90;;;;;;4956533;28;20295;-73
2022/06/28 03:16:02;;;;;;;;;;;17.60;99.90;;;;;;4962333;28;20426;-73
2022/06/28 03:18:34;;;;;;;;;;;17.60;99.90;;;;;;4974072;28;19930;-73
2022/06/28 03:21:05;;;;;;;;;;;17.60;99.90;;;;;;4962298;28;19944;-73
2022/06/28 03:23:37;;;;;;;;;;;17.60;99.90;;;;;;4960197;28;19928;-73
2022/06/28 03:26:09;;;;;;;;;;;17.50;99.90;;;;;;4976627;28;19931;-73
2022/06/28 03:28:40;;;;;;;;;;;17.50;99.90;;;;;;4957349;28;19930;-73
2022/06/28 03:31:12;;;;;;;;;;;17.40;99.90;;;;;;4959251;28;19923;-73
2022/06/28 03:33:44;;;;;;;;;;;17.30;99.90;;;;;;4974060;28;20295;-73
2022/06/28 03:36:11;;;;;;;;;;;17.20;99.90;;;;;;4953723;28;20017;-73
2022/06/28 03:38:44;;;;;;;;;;;17.20;99.90;;;;;;4952336;28;19926;-73
2022/06/28 03:41:24;;;;;;;;;;;17.10;99.90;;;;;;4949552;28;20005;-73
2022/06/28 03:44:03;;;;;;;;;;;17.10;99.90;;;;;;4979815;28;19922;-73
2022/06/28 03:46:35;;;;;;;;;;;17.10;99.90;;;;;;4964562;28;19927;-73
2022/06/28 03:49:26;;;;;;;;;;;17.10;99.90;;;;;;4966456;28;19930;-73
2022/06/28 03:52:07;;;;;;;;;;;17.10;99.90;;;;;;4955826;28;20376;-74
2022/06/28 03:55:03;;;;;;;;;;;17.20;99.90;;;;;;4941637;29;19922;-73
2022/06/28 03:57:41;;;;;;;;;;;17.30;99.90;;;;;;4969957;28;19926;-73
2022/06/28 04:00:13;;;;;;;;;;;17.30;99.90;;;;;;4972403;28;19950;-73
2022/06/28 04:02:49;;;;;;;;;;;17.40;99.90;;;;;;4984295;28;19937;-74
2022/06/28 04:05:26;;;;;;;;;;;17.40;99.90;;;;;;4967879;28;19933;-73
2022/06/28 04:08:00;;;;;;;;;;;17.40;99.90;;;;;;4968025;28;19989;-74
2022/06/28 04:10:38;;;;;;;;;;;17.30;99.90;;;;;;4970908;28;19927;-73
2022/06/28 04:13:15;;;;;;;;;;;17.40;99.90;;;;;;4973198;28;20406;-73
2022/06/28 04:15:47;;;;;;;;;;;17.40;99.90;;;;;;4988609;28;20525;-74
2022/06/28 04:18:20;;;;;;;;;;;17.40;99.90;;;;;;4968152;28;20264;-73
2022/06/28 04:21:05;;;;;;;;;;;17.50;99.90;;;;;;4942365;28;19929;-73
2022/06/28 04:23:39;;;;;;;;;;;17.70;99.90;;;;;;4954572;29;19981;-73
2022/06/28 04:26:06;;;;;;;;;;;17.80;99.90;;;;;;4944292;28;20020;-74
2022/06/28 04:28:41;;;;;;;;;;;17.90;99.90;;;;;;4948129;29;19985;-73
2022/06/28 04:31:15;;;;;;;;;;;18.00;99.90;;;;;;4946200;28;19922;-73
2022/06/28 04:33:43;;;;;;;;;;;18.00;99.90;;;;;;4963730;28;19927;-73
2022/06/28 04:36:17;;;;;;;;;;;17.90;99.90;;;;;;4968479;28;19927;-73
2022/06/28 04:38:49;;;;;;;;;;;17.90;99.90;;;;;;4973219;28;19926;-73
2022/06/28 04:41:26;;;;;;;;;;;17.80;99.90;;;;;;4971136;28;19927;-73
2022/06/28 04:44:06;;;;;;;;;;;17.90;99.90;;;;;;4978397;28;19922;-74
2022/06/28 04:46:36;;;;;;;;;;;18.00;99.90;;;;;;4957176;28;19922;-73
2022/06/28 04:49:14;;;;;;;;;;;18.10;99.90;;;;;;4967737;28;19930;-72
2022/06/28 04:51:52;;;;;;;;;;;18.20;99.90;;;;;;4948633;29;19922;-73
2022/06/28 04:54:34;;;;;;;;;;;18.20;99.90;;;;;;4946554;28;19933;-73
2022/06/28 04:57:28;;;;;;;;;;;18.20;99.90;;;;;;4950564;29;20304;-73
2022/06/28 05:00:06;;;;;;;;;;;18.20;99.90;;;;;;4941267;28;20022;-73
2022/06/28 05:02:42;;;;;;;;;;;18.30;99.90;;;;;;4948471;28;19923;-72
2022/06/28 05:05:47;;;;;;;;;;;18.30;99.90;;;;;;4940009;28;20012;-72
2022/06/28 05:08:14;;;;;;;;;;;18.30;99.90;;;;;;4952057;28;19945;-72
2022/06/28 05:10:57;;;;;;;;;;;18.30;99.90;;;;;;4961466;28;20025;-72
2022/06/28 05:13:49;;;;;;;;;;;18.20;99.90;;;;;;4945110;28;19926;-72
2022/06/28 05:16:22;;;;;;;;;;;18.20;99.90;;;;;;4967244;28;19933;-72
2022/06/28 05:18:54;;;;;;;;;;;18.30;99.90;;;;;;4945927;28;19932;-72
2022/06/28 05:21:32;;;;;;;;;;;18.30;99.90;;;;;;4950627;28;19922;-72
2022/06/28 05:24:04;;;;;;;;;;;18.30;99.90;;;;;;4955264;28;19927;-72
2022/06/28 05:26:39;;;;;;;;;;;18.30;99.90;;;;;;4957011;28;19926;-72
2022/06/28 05:29:19;;;;;;;;;;;18.30;99.90;;;;;;4948136;28;20425;-72
2022/06/28 05:31:51;;;;;;;;;;;18.30;99.90;;;;;;4942069;28;19931;-73
2022/06/28 05:34:20;;;;;;;;;;;18.40;99.90;;;;;;4969783;28;19923;-73
2022/06/28 05:36:51;;;;;;;;;;;18.40;99.90;;;;;;4970772;28;19969;-74
2022/06/28 05:39:18;;;;;;;;;;;18.40;99.90;;;;;;4966054;28;20394;-73
2022/06/28 05:41:50;;;;;;;;;;;18.40;99.90;;;;;;4963352;28;19926;-74
2022/06/28 05:44:21;;;;;;;;;;;18.40;99.90;;;;;;4971155;28;19937;-73
2022/06/28 05:46:53;;;;;;;;;;;18.40;99.90;;;;;;4972498;28;19923;-73
2022/06/28 05:49:25;;;;;;;;;;;18.40;99.90;;;;;;4964832;28;19976;-73
2022/06/28 05:51:56;;;;;;;;;;;18.50;99.90;;;;;;4959079;28;19926;-73
2022/06/28 05:54:28;;;;;;;;;;;18.50;99.90;;;;;;4980679;28;19985;-73
2022/06/28 05:56:55;;;;;;;;;;;18.40;99.90;;;;;;4974418;28;19981;-73
2022/06/28 05:59:27;;;;;;;;;;;18.40;99.90;;;;;;4974985;28;19945;-73
2022/06/28 06:01:59;;;;;;;;;;;18.40;99.90;;;;;;4975705;28;19923;-73
2022/06/28 06:04:26;;;;;;;;;;;18.40;99.90;;;;;;4973011;28;19945;-73
2022/06/28 06:06:53;;;;;;;;;;;18.40;99.90;;;;;;4957084;28;19968;-73
2022/06/28 06:09:25;;;;;;;;;;;18.50;99.90;;;;;;4979094;28;19922;-73
2022/06/28 06:11:57;;;;;;;;;;;18.50;99.90;;;;;;4972543;28;20421;-73
2022/06/28 06:14:28;;;;;;;;;;;18.60;99.90;;;;;;4985853;28;20330;-73
2022/06/28 06:17:00;;;;;;;;;;;18.60;99.90;;;;;;4976622;28;20391;-73
2022/06/28 06:19:27;;;;;;;;;;;18.70;99.90;;;;;;4943017;28;19923;-73
2022/06/28 06:21:58;;;;;;;;;;;18.90;99.90;;;;;;4953147;29;19930;-73
2022/06/28 06:24:30;;;;;;;;;;;18.90;99.90;;;;;;4980175;28;19978;-73
2022/06/28 06:27:19;;;;;;;;;;;18.90;99.90;;;;;;4963401;28;19926;-73
2022/06/28 06:29:51;;;;;;;;;;;19.00;99.90;;;;;;4972196;28;19922;-73
2022/06/28 06:32:48;;;;;;;;;;;19.10;99.90;;;;;;4950558;28;20461;-73
2022/06/28 06:35:50;;;;;;;;;;;19.10;99.90;;;;;;4951963;29;19926;-73
2022/06/28 06:38:17;;;;;;;;;;;19.20;99.90;;;;;;4956505;28;19926;-73
2022/06/28 06:40:46;;;;;;;;;;;19.20;99.90;;;;;;4939848;29;19922;-73
2022/06/28 06:43:17;;;;;;;;;;;19.30;99.90;;;;;;4968557;28;19928;-73
2022/06/28 06:45:46;;;;;;;;;;;19.30;99.90;;;;;;4962901;28;19977;-73
2022/06/28 06:48:18;;;;;;;;;;;19.30;99.90;;;;;;4978892;28;19930;-73
2022/06/28 06:50:51;;;;;;;;;;;19.30;99.90;;;;;;4968432;28;19922;-73
2022/06/28 06:53:23;;;;;;;;;;;19.30;99.90;;;;;;4972819;28;19945;-73
2022/06/28 06:55:55;;;;;;;;;;;19.20;99.90;;;;;;4948292;28;19973;-73
2022/06/28 06:58:27;;;;;;;;;;;19.20;99.90;;;;;;4965072;28;19929;-73
2022/06/28 07:00:59;;;;;;;;;;;19.20;99.90;;;;;;4948880;29;19926;-73
2022/06/28 07:03:26;;;;;;;;;;;19.10;99.90;;;;;;4966891;28;19923;-73
2022/06/28 07:05:58;;;;;;;;;;;19.20;99.90;;;;;;4945777;28;20029;-73
2022/06/28 07:08:30;;;;;;;;;;;19.20;99.90;;;;;;4967656;28;19922;-73
2022/06/28 07:11:02;;;;;;;;;;;19.30;99.90;;;;;;4981849;28;19927;-73
2022/06/28 07:13:28;;;;;;;;;;;19.40;99.90;;;;;;4969879;28;20017;-73
2022/06/28 07:16:01;;;;;;;;;;;19.50;99.90;;;;;;4960076;28;19926;-73
2022/06/28 07:18:33;;;;;;;;;;;19.40;99.90;;;;;;4951050;28;19933;-74
2022/06/28 07:21:05;;;;;;;;;;;19.40;99.90;;;;;;4963682;28;20017;-72
2022/06/28 07:23:37;;;;;;;;;;;19.40;99.90;;;;;;4965849;28;20668;-73
2022/06/28 07:26:04;;;;;;;;;;;19.40;99.90;;;;;;4966767;28;19958;-72
2022/06/28 07:28:36;;;;;;;;;;;19.50;99.90;;;;;;4965806;28;19974;-73
2022/06/28 07:31:08;;;;;;;;;;;19.60;99.90;;;;;;4961019;28;19929;-73
2022/06/28 07:33:40;;;;;;;;;;;19.60;99.90;;;;;;4958785;28;20029;-74
2022/06/28 07:36:16;;;;;;;;;;;19.70;99.90;;;;;;4960977;28;20322;-73
2022/06/28 07:38:49;;;;;;;;;;;19.80;99.90;;;;;;4966056;28;19990;-73
2022/06/28 07:41:21;;;;;;;;;;;19.80;99.90;;;;;;4946995;28;19926;-73
2022/06/28 07:44:07;;;;;;;;;;;19.80;99.90;;;;;;4949908;29;19933;-73
2022/06/28 07:46:40;;;;;;;;;;;19.90;99.90;;;;;;4979321;28;19953;-72
2022/06/28 07:49:12;;;;;;;;;;;19.90;99.90;;;;;;4953455;28;19997;-73
2022/06/28 07:54:33;;;;;;;;;;;20.00;99.90;;;;;;4951308;28;19951;-75
2022/06/28 07:57:13;;;;;;;;;;;20.10;99.90;;;;;;4963959;28;19926;-73
2022/06/28 07:59:45;;;;;;;;;;;20.10;99.90;;;;;;4956008;28;20347;-73
2022/06/28 08:02:12;;;;;;;;;;;20.10;99.90;;;;;;4950205;28;19934;-73
2022/06/28 08:04:50;;;;;;;;;;;20.10;99.90;;;;;;4973991;28;20404;-73
2022/06/28 08:07:22;;;;;;;;;;;20.10;99.90;;;;;;4955831;28;19927;-73
2022/06/28 08:09:55;;;;;;;;;;;20.20;99.90;;;;;;4964939;28;19937;-73
2022/06/28 08:12:26;;;;;;;;;;;20.30;99.90;;;;;;4946684;28;20012;-72
2022/06/28 08:14:57;;;;;;;;;;;20.40;99.90;;;;;;4979098;28;20358;-73
2022/06/28 08:17:29;;;;;;;;;;;20.30;99.90;;;;;;4965232;28;19961;-73
2022/06/28 08:20:00;;;;;;;;;;;20.40;99.90;;;;;;4949445;28;19922;-73
2022/06/28 08:22:28;;;;;;;;;;;20.40;99.90;;;;;;4981393;28;19922;-73
2022/06/28 08:25:00;;;;;;;;;;;20.50;99.90;;;;;;4963356;28;20442;-73
2022/06/28 08:27:32;;;;;;;;;;;20.50;99.90;;;;;;4964103;28;19958;-73
2022/06/28 08:29:59;;;;;;;;;;;20.60;99.90;;;;;;4983295;28;19923;-73
2022/06/28 08:32:30;;;;;;;;;;;20.60;99.90;;;;;;4962965;28;19923;-73
2022/06/28 08:35:02;;;;;;;;;;;20.60;99.90;;;;;;4986291;28;19922;-72
2022/06/28 08:37:34;;;;;;;;;;;20.70;99.90;;;;;;4949949;28;20081;-72
2022/06/28 08:40:06;;;;;;;;;;;20.80;99.90;;;;;;4979988;28;19926;-73
2022/06/28 08:42:38;;;;;;;;;;;20.80;99.90;;;;;;4946836;28;19926;-73
2022/06/28 08:45:11;;;;;;;;;;;20.90;99.90;;;;;;4965644;28;20294;-73
2022/06/28 08:47:46;;;;;;;;;;;21.00;99.90;;;;;;4952472;28;19926;-73
2022/06/28 08:50:32;;;;;;;;;;;21.10;99.90;;;;;;4953883;28;20009;-72
2022/06/28 08:53:05;;;;;;;;;;;21.30;99.90;;;;;;4952422;28;19969;-73
2022/06/28 08:55:37;;;;;;;;;;;21.50;99.90;;;;;;4951300;28;19973;-72
2022/06/28 08:58:08;;;;;;;;;;;21.70;99.90;;;;;;4945937;28;19926;-73
2022/06/28 09:00:41;;;;;;;;;;;21.80;99.90;;;;;;4944791;28;19931;-73
2022/06/28 09:03:12;;;;;;;;;;;21.90;99.90;;;;;;4952066;28;19922;-73
2022/06/28 09:05:39;;;;;;;;;;;22.10;99.90;;;;;;4967379;28;19927;-73
2022/06/28 09:08:10;;;;;;;;;;;22.20;99.90;;;;;;4976294;28;19934;-73
2022/06/28 09:10:45;;;;;;;;;;;22.30;99.90;;;;;;4940292;28;19929;-73
2022/06/28 09:13:17;;;;;;;;;;;22.20;99.90;;;;;;4964469;28;19923;-73
2022/06/28 09:15:54;;;;;;;;;;;22.20;99.90;;;;;;4951795;28;20387;-73
2022/06/28 09:18:22;;;;;;;;;;;22.20;99.90;;;;;;4959056;28;19923;-73
2022/06/28 09:20:53;;;;;;;;;;;22.20;99.90;;;;;;4948199;28;19933;-73
2022/06/28 09:23:29;;;;;;;;;;;22.20;99.90;;;;;;4962157;28;20462;-73
2022/06/28 09:26:06;;;;;;;;;;;22.30;99.90;;;;;;4946013;28;19929;-73
2022/06/28 09:28:39;;;;;;;;;;;22.30;99.90;;;;;;4978214;28;19928;-73
2022/06/28 09:31:13;;;;;;;;;;;22.30;99.90;;;;;;4978230;28;20025;-73
2022/06/28 09:34:03;;;;;;;;;;;22.30;99.90;;;;;;4975404;28;19930;-72
2022/06/28 09:36:36;;;;;;;;;;;22.30;99.90;;;;;;4948069;29;19929;-73
2022/06/28 09:39:15;;;;;;;;;;;22.40;99.90;;;;;;4977305;28;19923;-73
2022/06/28 09:41:48;;;;;;;;;;;22.40;99.90;;;;;;4951354;29;19927;-73
2022/06/28 09:44:24;;;;;;;;;;;22.40;99.90;;;;;;4967781;28;19929;-72
2022/06/28 09:46:57;;;;;;;;;;;22.50;99.90;;;;;;4969809;28;19930;-73
2022/06/28 09:49:29;;;;;;;;;;;22.60;99.90;;;;;;4973230;28;19922;-72
2022/06/28 09:52:01;;;;;;;;;;;22.70;99.90;;;;;;4971148;28;19923;-72
2022/06/28 09:54:35;;;;;;;;;;;22.70;99.90;;;;;;4958841;28;20475;-73
2022/06/28 09:57:09;;;;;;;;;;;22.80;99.90;;;;;;4947367;28;19961;-73
2022/06/28 09:59:35;;;;;;;;;;;22.80;99.90;;;;;;4975261;28;20480;-72
2022/06/28 10:02:09;;;;;;;;;;;22.80;99.90;;;;;;4947605;28;19929;-73
2022/06/28 10:04:35;;;;;;;;;;;22.80;99.90;;;;;;4970920;28;20310;-73
2022/06/28 10:07:14;;;;;;;;;;;22.90;99.90;;;;;;4974845;28;19922;-73
2022/06/28 10:09:45;;;;;;;;;;;23.00;99.90;;;;;;4948488;28;19926;-72
2022/06/28 10:15:08;;;;;;;;;;;23.20;99.90;;;;;;4948092;28;19965;-73
2022/06/28 10:17:43;;;;;;;;;;;23.30;99.90;;;;;;4977336;28;20414;-73
2022/06/28 10:20:24;;;;;;;;;;;23.30;99.90;;;;;;4948088;28;19926;-72
2022/06/28 10:23:14;;;;;;;;;;;23.30;99.90;;;;;;4940691;29;19922;-72
2022/06/28 10:26:05;;;;;;;;;;;23.20;99.90;;;;;;4951733;29;19926;-73
2022/06/28 10:28:44;;;;;;;;;;;23.20;99.90;;;;;;4947857;28;19926;-72
2022/06/28 10:31:25;;;;;;;;;;;23.30;99.90;;;;;;4973352;28;20020;-72
2022/06/28 10:33:57;;;;;;;;;;;23.50;99.90;;;;;;4943178;29;19938;-73
2022/06/28 10:36:39;;;;;;;;;;;23.60;99.90;;;;;;4952547;28;20029;-73
2022/06/28 10:39:13;;;;;;;;;;;23.70;99.90;;;;;;4964514;28;20022;-72
2022/06/28 10:41:46;;;;;;;;;;;23.70;99.90;;;;;;4947239;28;19926;-72
2022/06/28 10:44:20;;;;;;;;;;;23.70;99.90;;;;;;4945098;29;20037;-73
2022/06/28 10:47:00;;;;;;;;;;;23.70;99.90;;;;;;4940441;29;20387;-72
2022/06/28 10:49:52;;;;;;;;;;;23.70;99.90;;;;;;4976110;28;19949;-73
2022/06/28 10:52:23;;;;;;;;;;;23.60;99.90;;;;;;4987769;28;19922;-73
2022/06/28 10:54:54;;;;;;;;;;;23.50;99.90;;;;;;4955952;28;19933;-73
2022/06/28 10:57:26;;;;;;;;;;;23.50;99.90;;;;;;4962500;28;20088;-76
2022/06/28 10:59:59;;;;;;;;;;;23.50;99.90;;;;;;4978012;28;20306;-73
2022/06/28 11:03:01;;;;;;;;;;;23.40;99.90;;;;;;4953350;28;19930;-72
2022/06/28 11:05:47;;;;;;;;;;;23.40;99.90;;;;;;4926642;29;20290;-72
2022/06/28 11:08:45;;;;;;;;;;;23.30;99.90;;;;;;4948627;29;19945;-73
2022/06/28 11:11:16;;;;;;;;;;;23.40;99.90;;;;;;4944372;29;19934;-72
2022/06/28 11:13:43;;;;;;;;;;;23.30;99.90;;;;;;4955304;28;19941;-73
2022/06/28 11:16:33;;;;;;;;;;;23.30;99.90;;;;;;4969995;28;20413;-73
2022/06/28 11:19:08;;;;;;;;;;;23.30;99.90;;;;;;4958448;28;19938;-73
2022/06/28 11:21:35;;;;;;;;;;;23.30;99.90;;;;;;4951428;28;19989;-73
2022/06/28 11:24:07;;;;;;;;;;;23.20;99.90;;;;;;4944736;28;19928;-73
2022/06/28 11:29:29;;;;;;;;;;;23.20;99.90;;;;;;4942300;29;20291;-73
2022/06/28 11:32:13;;;;;;;;;;;23.10;99.90;;;;;;4956646;28;19923;-73
2022/06/28 11:35:05;;;;;;;;;;;23.20;99.90;;;;;;4967650;28;19922;-72
2022/06/28 11:37:52;;;;;;;;;;;23.20;99.90;;;;;;4959956;28;19958;-73
2022/06/28 11:40:25;;;;;;;;;;;23.20;99.90;;;;;;4944466;28;20252;-73
2022/06/28 11:43:01;;;;;;;;;;;23.30;99.90;;;;;;4968305;28;20295;-73
2022/06/28 11:45:30;;;;;;;;;;;23.40;99.90;;;;;;4962565;28;19933;-73
2022/06/28 11:48:03;;;;;;;;;;;23.50;99.90;;;;;;4963841;28;19933;-73
2022/06/28 11:50:40;;;;;;;;;;;23.60;99.90;;;;;;4942191;29;19926;-72
2022/06/28 11:53:12;;;;;;;;;;;23.70;99.90;;;;;;4942233;29;20426;-73
2022/06/28 11:55:45;;;;;;;;;;;23.80;99.90;;;;;;4944870;29;19930;-73
2022/06/28 11:58:19;;;;;;;;;;;24.00;99.90;;;;;;4937996;28;19982;-73
2022/06/28 12:01:03;;;;;;;;;;;24.00;99.90;;;;;;4962928;28;19922;-73
2022/06/28 12:03:30;;;;;;;;;;;24.20;99.90;;;;;;4953840;28;20018;-73
2022/06/28 12:06:03;;;;;;;;;;;24.30;99.90;;;;;;4943267;28;19930;-72
2022/06/28 12:08:42;;;;;;;;;;;24.50;99.90;;;;;;4943102;28;19949;-73
2022/06/28 12:11:29;;;;;;;;;;;24.60;99.90;;;;;;4955981;28;19927;-73
2022/06/28 12:14:05;;;;;;;;;;;24.60;99.90;;;;;;4977410;28;20049;-73
2022/06/28 12:16:40;;;;;;;;;;;24.60;99.90;;;;;;4945585;28;20371;-73
2022/06/28 12:19:13;;;;;;;;;;;24.50;99.90;;;;;;4952481;28;19954;-74
2022/06/28 12:21:58;;;;;;;;;;;24.50;99.90;;;;;;4952802;28;19929;-73
2022/06/28 12:24:36;;;;;;;;;;;24.50;99.90;;;;;;4936563;29;19926;-72
2022/06/28 12:27:09;;;;;;;;;;;24.40;99.90;;;;;;4982858;28;19953;-73
2022/06/28 12:29:41;;;;;;;;;;;24.30;99.90;;;;;;4953009;28;19930;-73
2022/06/28 12:32:08;;;;;;;;;;;24.30;99.90;;;;;;4943986;28;19930;-73
2022/06/28 12:34:40;;;;;;;;;;;24.10;99.90;;;;;;4945711;28;19922;-73
2022/06/28 12:37:12;;;;;;;;;;;24.10;99.90;;;;;;4947865;29;19926;-73
2022/06/28 12:39:44;;;;;;;;;;;24.00;99.90;;;;;;4952356;28;19932;-73
2022/06/28 12:42:15;;;;;;;;;;;23.90;99.90;;;;;;4962014;28;19930;-73
2022/06/28 12:44:47;;;;;;;;;;;23.80;99.90;;;;;;4995059;28;19926;-73
2022/06/28 12:47:18;;;;;;;;;;;23.70;99.90;;;;;;4964168;28;19928;-73
2022/06/28 12:49:50;;;;;;;;;;;23.70;99.90;;;;;;4956013;28;19956;-72
2022/06/28 12:52:22;;;;;;;;;;;23.70;99.90;;;;;;4956336;28;19922;-73
2022/06/28 12:54:49;;;;;;;;;;;23.60;99.90;;;;;;4956835;28;19948;-73
2022/06/28 12:57:15;;;;;;;;;;;23.70;99.90;;;;;;4959027;28;19930;-73
2022/06/28 12:59:47;;;;;;;;;;;23.70;99.90;;;;;;4971171;28;19926;-73
2022/06/28 13:02:18;;;;;;;;;;;23.80;99.90;;;;;;4991439;28;20387;-73
2022/06/28 13:04:50;;;;;;;;;;;23.70;99.90;;;;;;4949379;28;20069;-73
2022/06/28 13:07:22;;;;;;;;;;;23.70;99.90;;;;;;4954384;28;19945;-73
2022/06/28 13:09:54;;;;;;;;;;;23.80;99.90;;;;;;4984000;28;20041;-73
2022/06/28 13:12:26;;;;;;;;;;;23.80;99.90;;;;;;4964531;28;20024;-73
2022/06/28 13:14:57;;;;;;;;;;;23.70;99.90;;;;;;4947999;28;19923;-73
2022/06/28 13:17:29;;;;;;;;;;;23.70;99.90;;;;;;4952019;28;20017;-73
2022/06/28 13:19:56;;;;;;;;;;;23.70;99.90;;;;;;4963713;28;19925;-73
2022/06/28 13:22:27;;;;;;;;;;;23.70;99.90;;;;;;4959495;28;19940;-73
2022/06/28 13:24:59;;;;;;;;;;;23.70;99.90;;;;;;4947592;28;19922;-73
2022/06/28 13:27:31;;;;;;;;;;;23.70;99.90;;;;;;4949907;28;19926;-73
2022/06/28 13:30:03;;;;;;;;;;;23.70;99.90;;;;;;4956250;28;19926;-73
2022/06/28 13:32:35;;;;;;;;;;;23.60;99.90;;;;;;4950414;28;19926;-73
2022/06/28 13:35:07;;;;;;;;;;;23.50;99.90;;;;;;4959625;28;19928;-73
2022/06/28 13:37:33;;;;;;;;;;;23.40;99.90;;;;;;4956071;28;20412;-73
2022/06/28 13:40:00;;;;;;;;;;;23.50;99.90;;;;;;4974412;28;19929;-73
2022/06/28 13:42:32;;;;;;;;;;;23.40;99.90;;;;;;4982670;28;19958;-73
2022/06/28 13:45:07;;;;;;;;;;;23.40;99.90;;;;;;4969089;28;19922;-73
2022/06/28 13:47:34;;;;;;;;;;;23.40;99.90;;;;;;4984917;28;19932;-73
2022/06/28 13:50:06;;;;;;;;;;;23.50;99.90;;;;;;4948648;28;19944;-73
2022/06/28 13:52:33;;;;;;;;;;;23.50;99.90;;;;;;4948044;28;20366;-73
2022/06/28 13:55:05;;;;;;;;;;;23.50;99.90;;;;;;4939224;28;19946;-72
2022/06/28 13:57:37;;;;;;;;;;;23.60;99.90;;;;;;4976622;28;20410;-73
2022/06/28 14:00:09;;;;;;;;;;;23.60;99.90;;;;;;4945623;29;20426;-73
2022/06/28 14:02:41;;;;;;;;;;;23.70;99.90;;;;;;4935553;29;19923;-73
2022/06/28 14:05:12;;;;;;;;;;;23.80;99.90;;;;;;4942318;29;19922;-73
2022/06/28 14:07:44;;;;;;;;;;;23.90;99.90;;;;;;4965866;28;19922;-73
2022/06/28 14:10:16;;;;;;;;;;;24.00;99.90;;;;;;4980205;28;19923;-73
2022/06/28 14:12:47;;;;;;;;;;;24.10;99.90;;;;;;4958246;28;19930;-73
2022/06/28 14:15:19;;;;;;;;;;;24.10;99.90;;;;;;4961689;28;19923;-73
2022/06/28 14:17:50;;;;;;;;;;;24.10;99.90;;;;;;4977074;28;20366;-73
2022/06/28 14:20:22;;;;;;;;;;;24.00;99.90;;;;;;4949891;29;19923;-73
2022/06/28 14:22:54;;;;;;;;;;;24.00;99.90;;;;;;4954897;28;19929;-73
2022/06/28 14:25:25;;;;;;;;;;;24.00;99.90;;;;;;4949493;28;19926;-73
2022/06/28 14:27:57;;;;;;;;;;;23.90;99.90;;;;;;4952857;28;19937;-73
2022/06/28 14:30:29;;;;;;;;;;;23.70;99.90;;;;;;4947801;28;19929;-73
2022/06/28 14:33:01;;;;;;;;;;;23.70;99.90;;;;;;4958801;28;19922;-73
2022/06/28 14:35:34;;;;;;;;;;;23.70;99.90;;;;;;4945705;28;19922;-73
2022/06/28 14:38:05;;;;;;;;;;;23.70;99.90;;;;;;4989020;28;20647;-74
2022/06/28 14:40:37;;;;;;;;;;;23.60;99.90;;;;;;4953272;28;19923;-73
2022/06/28 14:43:09;;;;;;;;;;;23.60;99.90;;;;;;4965483;28;19962;-73
2022/06/28 14:45:41;;;;;;;;;;;23.70;99.90;;;;;;4954150;28;20390;-73
2022/06/28 14:48:13;;;;;;;;;;;23.60;99.90;;;;;;4968541;28;20002;-73
2022/06/28 14:50:44;;;;;;;;;;;23.60;99.90;;;;;;4951992;28;19926;-73
2022/06/28 14:53:16;;;;;;;;;;;23.60;99.90;;;;;;4965264;28;19922;-73
2022/06/28 14:55:42;;;;;;;;;;;23.60;99.90;;;;;;4951661;28;20287;-73
2022/06/28 14:58:14;;;;;;;;;;;23.50;99.90;;;;;;4950358;28;19926;-73
2022/06/28 15:00:47;;;;;;;;;;;23.50;99.90;;;;;;4946863;28;19962;-73
2022/06/28 15:03:19;;;;;;;;;;;23.40;99.90;;;;;;4954449;28;19933;-73
2022/06/28 15:05:45;;;;;;;;;;;23.40;99.90;;;;;;4927511;28;19923;-73
2022/06/28 15:08:17;;;;;;;;;;;23.30;99.90;;;;;;4973893;28;20386;-73
2022/06/28 15:10:49;;;;;;;;;;;23.20;99.90;;;;;;4948162;28;20302;-73